Lake Clear, NY

2:21 AM EDT on July 08, 2015 (GMT -0400)
Adirondack Regional | | Change Station
CLOSE
Current Station
Airport
Location: Saranac Lake,
Elevation: 1660 ft
Nearby Weather Stations

Elev 1660 ft 44.39 °N, 74.21 °W | Updated 30 minutes ago

Overcast
Overcast
68 °F
Feels Like 68 °F
N
12
Wind Variable Wind from SW

Today
High -- | Low -- °F
--% Chance of Precip.
Yesterday
High -- | Low -- °F
Precip. -- in
5:20 AM 8:42 PM
Waning Gibbous, 57% visible
Pressure 29.83 in
Visibility 7.0 miles
Clouds Mostly Cloudy 1000 ft
Overcast 1400 ft
Dew Point 67 °F
Humidity 96%
Rainfall 0.00 in
Snow Depth Not available.
UV 0 out of 12
Pollen 3.20 out of 12
Air Quality Not available.
Flu Activity Not available.
METAR KSLK 080551Z AUTO 23010KT 7SM BKN010 OVC014 20/19 A2986 RMK AO2 RAB06E19 CIG 007V012 SLP102 P0000 60004 T02000194 10239 20200 56008

More Conditions Fewer Conditions

Pressure 29.83 in
Visibility 7.0 miles
Clouds Mostly Cloudy 1000 ft
Overcast 1400 ft
Dew Point 67 °F
Humidity 96%
Rainfall 0.00 in
Snow Depth Not available.
UV 0 out of 12
Pollen 3.20 out of 12
Air Quality Not available.
Flu Activity Not available.
METAR KSLK 080551Z AUTO 23010KT 7SM BKN010 OVC014 20/19 A2986 RMK AO2 RAB06E19 CIG 007V012 SLP102 P0000 60004 T02000194 10239 20200 56008

More Conditions Fewer Conditions

10-Day Weather Forecast

×

Almanac

Astronomy

Jul. 08, 2015 Rise Set
Actual Time
Civil Twilight
Nautical Twilight
Astronomical Twilight
Moon
Length of Visible Light
Length of Day
Tomorrow will be .
, % of the Moon is Illuminated

Today's Extremes

State Highs State Lows

Community

WunderPhotos

Upload Photos

1,836,064 photos uploaded!

WunderBlogs® & News

Nearby

Air Quality

  Air Quality AQ Index Pollutant
Not available.

Snow Depth

Station Depth Elevation

Earthquake Activity

City Distance Mag. Time & Date
Minimum magnitude displayed is 2.5.

Coastal Water Temperatures

Place Temperature

Stations

Nearby Weather Stations

Station Location Temp. Windchill Dew Point Humidity Wind Precip. Elev Updated Type